createdAt,value
2024-05-09T00:00:26.508Z,0
2024-05-09T00:01:23.611Z,0
2024-05-09T00:02:23.805Z,0
2024-05-09T00:03:23.872Z,0
2024-05-09T00:04:24.041Z,0
2024-05-09T00:05:24.181Z,0
2024-05-09T00:06:24.293Z,0
2024-05-09T00:07:24.466Z,0
2024-05-09T00:08:24.620Z,0
2024-05-09T00:09:24.735Z,0
2024-05-09T00:10:29.037Z,0
2024-05-09T00:11:25.086Z,0
2024-05-09T00:12:25.873Z,0
2024-05-09T00:13:25.343Z,0
2024-05-09T00:14:26.644Z,0
2024-05-09T00:16:26.510Z,0
2024-05-09T00:18:26.171Z,0
2024-05-09T00:19:26.257Z,0
2024-05-09T00:20:28.832Z,0
2024-05-09T00:21:26.512Z,0
2024-05-09T00:22:26.652Z,0
2024-05-09T00:23:26.830Z,0
2024-05-09T00:24:26.979Z,0
2024-05-09T00:25:27.127Z,0
2024-05-09T00:26:27.373Z,0
2024-05-09T00:27:27.397Z,0
2024-05-09T00:28:27.522Z,0
2024-05-09T00:29:27.696Z,0
2024-05-09T00:30:31.436Z,0
2024-05-09T00:31:27.928Z,0
2024-05-09T00:32:28.172Z,0
2024-05-09T00:33:28.560Z,0
2024-05-09T00:34:28.469Z,0
2024-05-09T00:35:28.678Z,0
2024-05-09T00:36:28.684Z,0
2024-05-09T00:37:28.841Z,0
2024-05-09T00:38:29.026Z,0
2024-05-09T00:39:29.147Z,0
2024-05-09T00:40:34.663Z,0
2024-05-09T00:42:29.586Z,0
2024-05-09T00:43:29.748Z,0
2024-05-09T00:44:29.922Z,0
2024-05-09T00:45:30.067Z,0
2024-05-09T00:46:30.201Z,0
2024-05-09T00:47:30.542Z,0
2024-05-09T00:48:30.674Z,0
2024-05-09T00:49:30.749Z,0
2024-05-09T00:50:35.173Z,0
2024-05-09T00:51:30.909Z,0
2024-05-09T00:52:31.071Z,0
2024-05-09T00:53:31.399Z,0
2024-05-09T00:54:31.384Z,0
2024-05-09T00:55:31.544Z,0
2024-05-09T00:56:31.761Z,0
2024-05-09T00:57:31.823Z,0
2024-05-09T00:58:31.971Z,0
2024-05-09T00:59:32.176Z,0
2024-05-09T01:00:37.486Z,0
2024-05-09T01:01:32.492Z,0
2024-05-09T01:02:32.759Z,0
2024-05-09T01:03:33.056Z,0
2024-05-09T01:04:32.974Z,0
2024-05-09T01:05:33.114Z,0
2024-05-09T01:06:33.201Z,0
2024-05-09T01:07:33.341Z,0
2024-05-09T01:08:33.616Z,0
2024-05-09T01:09:33.646Z,0
2024-05-09T01:10:34.863Z,0
2024-05-09T01:11:34.012Z,0
2024-05-09T01:12:34.151Z,0
2024-05-09T01:13:34.252Z,0
2024-05-09T01:14:34.435Z,0
2024-05-09T01:15:34.679Z,0
2024-05-09T01:16:34.705Z,0
2024-05-09T01:17:34.973Z,0
2024-05-09T01:18:35.047Z,0
2024-05-09T01:19:35.165Z,0
2024-05-09T01:20:39.833Z,0
2024-05-09T01:21:35.408Z,0
2024-05-09T01:22:35.561Z,0
2024-05-09T01:23:35.759Z,0
2024-05-09T01:24:35.862Z,0
2024-05-09T01:25:36.058Z,0
2024-05-09T01:26:36.207Z,0
2024-05-09T01:27:36.326Z,0
2024-05-09T01:28:36.500Z,0
2024-05-09T01:29:36.650Z,0
2024-05-09T01:30:37.550Z,0
2024-05-09T01:31:36.964Z,0
2024-05-09T01:32:37.172Z,0
2024-05-09T01:33:37.570Z,0
2024-05-09T01:34:37.381Z,0
2024-05-09T01:35:37.771Z,0
2024-05-09T01:36:37.699Z,0
2024-05-09T01:37:37.867Z,0
2024-05-09T01:38:38.020Z,0
2024-05-09T01:39:38.139Z,0
2024-05-09T01:40:39.585Z,0
2024-05-09T01:41:38.509Z,0
2024-05-09T01:42:38.598Z,0
2024-05-09T01:43:38.751Z,0
2024-05-09T01:44:38.908Z,0
2024-05-09T01:45:39.073Z,0
2024-05-09T01:46:39.199Z,0
2024-05-09T01:47:39.502Z,0
2024-05-09T01:48:39.528Z,0
2024-05-09T01:49:39.645Z,0
2024-05-09T01:50:41.206Z,0
2024-05-09T01:51:39.945Z,0
2024-05-09T01:52:40.070Z,0
2024-05-09T01:53:40.274Z,0
2024-05-09T01:54:40.375Z,0
2024-05-09T01:55:40.538Z,0
2024-05-09T01:56:40.707Z,0
2024-05-09T01:57:40.824Z,0
2024-05-09T01:58:40.974Z,0
2024-05-09T01:59:41.169Z,0
2024-05-09T02:00:42.135Z,0
2024-05-09T02:01:54.937Z,0
2024-05-09T02:02:41.701Z,0
2024-05-09T02:03:41.834Z,0
2024-05-09T02:04:42.003Z,0
2024-05-09T02:05:42.069Z,0
2024-05-09T02:06:42.185Z,0
2024-05-09T02:07:42.281Z,0
2024-05-09T02:08:42.442Z,0
2024-05-09T02:09:42.586Z,0
2024-05-09T02:10:42.867Z,0
2024-05-09T02:11:42.959Z,0
2024-05-09T02:12:43.048Z,0
2024-05-09T02:13:43.258Z,0
2024-05-09T02:14:43.345Z,0
2024-05-09T02:15:43.518Z,0
2024-05-09T02:16:43.682Z,0
2024-05-09T02:17:44.103Z,0
2024-05-09T02:18:44.015Z,0
2024-05-09T02:19:44.180Z,0
2024-05-09T02:20:44.413Z,0
2024-05-09T02:21:44.424Z,0
2024-05-09T02:22:44.583Z,0
2024-05-09T02:23:44.730Z,0
2024-05-09T02:24:44.873Z,0
2024-05-09T02:25:45.060Z,0
2024-05-09T02:26:45.193Z,0
2024-05-09T02:27:45.343Z,0
2024-05-09T02:28:45.506Z,0
2024-05-09T02:29:45.632Z,0
2024-05-09T02:30:45.785Z,0
2024-05-09T02:31:45.979Z,0
2024-05-09T02:32:46.320Z,0
2024-05-09T02:33:46.402Z,0
2024-05-09T02:34:46.430Z,0
2024-05-09T02:35:46.524Z,0
2024-05-09T02:36:46.663Z,0
2024-05-09T02:37:46.807Z,0
2024-05-09T02:38:46.960Z,0
2024-05-09T02:39:47.095Z,0
2024-05-09T02:40:47.262Z,0
2024-05-09T02:41:47.414Z,0
2024-05-09T02:42:47.548Z,0
2024-05-09T02:43:47.720Z,0
2024-05-09T02:44:47.869Z,0
2024-05-09T02:45:48.025Z,0
2024-05-09T02:46:48.212Z,0
2024-05-09T02:47:48.466Z,0
2024-05-09T02:48:48.589Z,0
2024-05-09T02:49:48.648Z,0
2024-05-09T02:50:48.828Z,0
2024-05-09T02:51:48.870Z,2
2024-05-09T02:52:49.063Z,2
2024-05-09T02:53:49.168Z,2
2024-05-09T02:54:49.326Z,2
2024-05-09T02:55:49.507Z,2
2024-05-09T02:56:49.634Z,3.04
2024-05-09T02:57:49.774Z,3.04
2024-05-09T02:58:50.008Z,3.04
2024-05-09T02:59:50.079Z,4
2024-05-09T03:00:50.267Z,4
2024-05-09T03:01:50.402Z,5.04
2024-05-09T03:02:50.559Z,6
2024-05-09T03:03:50.790Z,7.04
2024-05-09T03:04:50.901Z,8
2024-05-09T03:05:51.021Z,9.04
2024-05-09T03:06:51.095Z,11.04
2024-05-09T03:07:51.318Z,12
2024-05-09T03:08:51.412Z,14
2024-05-09T03:09:51.560Z,16
2024-05-09T03:10:51.733Z,18
2024-05-09T03:11:51.906Z,21.04
2024-05-09T03:12:52.002Z,24
2024-05-09T03:13:52.187Z,28
2024-05-09T03:14:52.336Z,32
2024-05-09T03:15:52.452Z,36
2024-05-09T03:16:52.637Z,42
2024-05-09T03:17:52.804Z,47.04
2024-05-09T03:18:52.985Z,54
2024-05-09T03:19:53.110Z,61.04
2024-05-09T03:20:53.210Z,69.04
2024-05-09T03:21:53.308Z,78
2024-05-09T03:22:56.304Z,87.04
2024-05-09T03:23:53.685Z,98
2024-05-09T03:24:53.776Z,110
2024-05-09T03:25:53.965Z,120
2024-05-09T03:26:54.081Z,130
2024-05-09T03:27:54.227Z,150
2024-05-09T03:28:54.392Z,160
2024-05-09T03:29:54.553Z,180
2024-05-09T03:30:54.682Z,190.08
2024-05-09T03:31:54.903Z,210.08
2024-05-09T03:32:55.046Z,220
2024-05-09T03:33:55.220Z,240
2024-05-09T03:34:55.266Z,260
2024-05-09T03:35:55.351Z,280
2024-05-09T03:36:55.493Z,300
2024-05-09T03:37:55.669Z,320
2024-05-09T03:38:55.807Z,340.16
2024-05-09T03:39:55.954Z,360
2024-05-09T03:40:56.140Z,380.16
2024-05-09T03:41:56.254Z,400
2024-05-09T03:42:56.412Z,420.16
2024-05-09T03:43:56.601Z,440
2024-05-09T03:44:56.708Z,460.16
2024-05-09T03:45:56.853Z,490.24
2024-05-09T03:46:56.975Z,510.08
2024-05-09T03:47:57.501Z,530.24
2024-05-09T03:48:57.350Z,550.08
2024-05-09T03:49:57.497Z,580.16
2024-05-09T03:50:57.593Z,610.24
2024-05-09T03:51:57.722Z,640
2024-05-09T03:52:57.878Z,670.08
2024-05-09T03:53:58.018Z,700.16
2024-05-09T03:54:58.181Z,700.16
2024-05-09T03:55:58.371Z,700.16
2024-05-09T03:56:58.482Z,800
2024-05-09T03:57:58.664Z,800
2024-05-09T03:58:58.743Z,900.48
2024-05-09T03:59:58.891Z,900.48
2024-05-09T04:00:59.073Z,900.48
2024-05-09T04:01:59.314Z,900.48
2024-05-09T04:02:59.602Z,900.48
2024-05-09T04:03:59.547Z,900.48
2024-05-09T04:04:59.625Z,900.48
2024-05-09T04:05:59.746Z,900.48
2024-05-09T04:06:59.908Z,1000.32
2024-05-09T04:08:00.099Z,1000.32
2024-05-09T04:09:00.201Z,1100.16
2024-05-09T04:10:00.381Z,1100.16
2024-05-09T04:11:00.585Z,1100.16
2024-05-09T04:12:00.803Z,1100.16
2024-05-09T04:13:00.855Z,1200
2024-05-09T04:14:01.034Z,1200
2024-05-09T04:15:01.116Z,1300.48
2024-05-09T04:16:01.276Z,1300.48
2024-05-09T04:17:01.462Z,1300.48
2024-05-09T04:18:02.240Z,1300.48
2024-05-09T04:19:01.815Z,1300.48
2024-05-09T04:20:01.934Z,1400.32
2024-05-09T04:21:02.252Z,1400.32
2024-05-09T04:22:02.168Z,1400.32
2024-05-09T04:23:02.389Z,1500.16
2024-05-09T04:24:02.479Z,1500.16
2024-05-09T04:25:02.628Z,1500.16
2024-05-09T04:26:02.830Z,1500.16
2024-05-09T04:27:02.934Z,1600
2024-05-09T04:28:03.107Z,1600
2024-05-09T04:29:03.301Z,1600
2024-05-09T04:30:03.685Z,1701.12
2024-05-09T04:31:03.540Z,1701.12
2024-05-09T04:32:03.730Z,1701.12
2024-05-09T04:33:03.945Z,1800.96
2024-05-09T04:34:04.156Z,1800.96
2024-05-09T04:35:04.152Z,1800.96
2024-05-09T04:36:04.297Z,1900.8
2024-05-09T04:37:04.463Z,1900.8
2024-05-09T04:38:04.705Z,1900.8
2024-05-09T04:39:04.744Z,2000.64
2024-05-09T04:40:06.940Z,2000.64
2024-05-09T04:41:05.058Z,2000.64
2024-05-09T04:42:05.212Z,2100.48
2024-05-09T04:43:05.567Z,2100.48
2024-05-09T04:44:05.517Z,2200.32
2024-05-09T04:45:05.619Z,2200.32
2024-05-09T04:46:05.774Z,2300.16
2024-05-09T04:47:05.966Z,2300.16
2024-05-09T04:48:06.304Z,2400
2024-05-09T04:49:06.321Z,2400
2024-05-09T04:50:08.761Z,2501.12
2024-05-09T04:51:06.643Z,2501.12
2024-05-09T04:52:06.719Z,2600.96
2024-05-09T04:53:07.472Z,2700.8
2024-05-09T04:54:08.549Z,2700.8
2024-05-09T04:55:07.146Z,2800.64
2024-05-09T04:56:07.358Z,2800.64
2024-05-09T04:57:07.485Z,2900.48
2024-05-09T04:58:07.637Z,3000.32
2024-05-09T04:59:07.797Z,3000.32
2024-05-09T05:00:14.280Z,3100.16
2024-05-09T05:01:08.123Z,3200
2024-05-09T05:02:08.206Z,3701.76
2024-05-09T05:03:09.048Z,3402.24
2024-05-09T05:04:08.563Z,3601.92
2024-05-09T05:05:08.736Z,3601.92
2024-05-09T05:06:08.826Z,3601.92
2024-05-09T05:07:08.943Z,3701.76
2024-05-09T05:08:09.182Z,3701.76
2024-05-09T05:09:09.268Z,3801.6
2024-05-09T05:10:11.901Z,3801.6
2024-05-09T05:11:09.604Z,3901.44
2024-05-09T05:12:09.839Z,4300.8
2024-05-09T05:13:09.868Z,4001.28
2024-05-09T05:14:10.052Z,4001.28
2024-05-09T05:15:10.164Z,4001.28
2024-05-09T05:16:10.314Z,4101.12
2024-05-09T05:17:10.534Z,4200.96
2024-05-09T05:18:10.697Z,4200.96
2024-05-09T05:19:12.760Z,4300.8
2024-05-09T05:21:12.087Z,4600.32
2024-05-09T05:23:11.956Z,4500.48
2024-05-09T05:25:11.716Z,4800
2024-05-09T05:26:11.879Z,6000.64
2024-05-09T05:27:11.979Z,6103.04
2024-05-09T05:28:12.151Z,5304.32
2024-05-09T05:29:12.444Z,5201.92
2024-05-09T05:30:17.602Z,7101.44
2024-05-09T05:31:12.548Z,7403.52
2024-05-09T05:32:12.810Z,7203.84
2024-05-09T05:33:13.148Z,7203.84
2024-05-09T05:34:13.050Z,6200.32
2024-05-09T05:35:13.174Z,7004.16
2024-05-09T05:36:13.342Z,6502.4
2024-05-09T05:37:13.453Z,6000.64
2024-05-09T05:38:13.664Z,6103.04
2024-05-09T05:39:13.765Z,5703.68
2024-05-09T05:40:20.870Z,5800.96
2024-05-09T05:41:14.120Z,8002.56
2024-05-09T05:42:14.230Z,8401.92
2024-05-09T05:43:14.362Z,7203.84
2024-05-09T05:44:14.514Z,6302.72
2024-05-09T05:45:14.688Z,6604.8
2024-05-09T05:46:14.834Z,8202.24
2024-05-09T05:47:15.156Z,7802.88
2024-05-09T05:48:15.228Z,6502.4
2024-05-09T05:49:15.345Z,6200.32
2024-05-09T05:50:20.743Z,6000.64
2024-05-09T05:51:15.777Z,6604.8
2024-05-09T05:52:15.734Z,6302.72
2024-05-09T05:53:16.030Z,7500.8
2024-05-09T05:54:16.048Z,8704
2024-05-09T05:55:16.186Z,6702.08
2024-05-09T05:56:16.426Z,9702.399
2024-05-09T05:57:16.496Z,9400.319
2024-05-09T05:58:16.630Z,7802.88
2024-05-09T05:59:16.834Z,7301.12
2024-05-09T06:00:25.287Z,7403.52
2024-05-09T06:01:17.206Z,8401.92
2024-05-09T06:02:17.328Z,7101.44
2024-05-09T06:03:17.476Z,6702.08
2024-05-09T06:04:17.582Z,6702.08
2024-05-09T06:05:17.714Z,6804.48
2024-05-09T06:06:17.852Z,6901.76
2024-05-09T06:07:17.999Z,7203.84
2024-05-09T06:08:18.249Z,10506.24
2024-05-09T06:09:18.327Z,7603.2
2024-05-09T06:10:21.619Z,8401.92
2024-05-09T06:11:18.645Z,7500.8
2024-05-09T06:12:18.854Z,7900.16
2024-05-09T06:13:18.915Z,9103.359
2024-05-09T06:14:19.070Z,8504.319
2024-05-09T06:15:19.201Z,7403.52
2024-05-09T06:16:19.385Z,7700.48
2024-05-09T06:17:19.706Z,7900.16
2024-05-09T06:18:19.959Z,8104.96
2024-05-09T06:19:20.010Z,9303.04
2024-05-09T06:20:23.818Z,8504.319
2024-05-09T06:21:20.185Z,8304.64
2024-05-09T06:22:20.292Z,8202.24
2024-05-09T06:23:20.451Z,8104.96
2024-05-09T06:24:20.612Z,9502.72
2024-05-09T06:25:20.726Z,8401.92
2024-05-09T06:26:20.943Z,8401.92
2024-05-09T06:27:21.055Z,9303.04
2024-05-09T06:28:21.188Z,8202.24
2024-05-09T06:29:21.397Z,8002.56
2024-05-09T06:30:26.057Z,8104.96
2024-05-09T06:31:21.644Z,8304.64
2024-05-09T06:32:21.882Z,8504.319
2024-05-09T06:33:22.131Z,8601.6
2024-05-09T06:34:22.278Z,8704
2024-05-09T06:35:22.348Z,9000.96
2024-05-09T06:36:22.415Z,8903.68
2024-05-09T06:37:22.568Z,8903.68
2024-05-09T06:38:22.744Z,9103.359
2024-05-09T06:39:22.849Z,9103.359
2024-05-09T06:40:25.575Z,9200.64
2024-05-09T06:41:23.246Z,9400.319
2024-05-09T06:42:23.268Z,9303.04
2024-05-09T06:43:23.410Z,9303.04
2024-05-09T06:44:23.603Z,9400.319
2024-05-09T06:45:23.725Z,9702.399
2024-05-09T06:46:23.882Z,9804.8
2024-05-09T06:47:24.312Z,9702.399
2024-05-09T06:48:24.308Z,9600
2024-05-09T06:49:24.421Z,9600
2024-05-09T06:50:27.883Z,9702.399
2024-05-09T06:51:24.613Z,10101.76
2024-05-09T06:52:24.736Z,10403.84
2024-05-09T06:53:24.921Z,10101.76
2024-05-09T06:54:25.037Z,10101.76
2024-05-09T06:55:25.214Z,9400.319
2024-05-09T06:56:25.372Z,10803.2
2024-05-09T06:57:25.439Z,10700.8
2024-05-09T06:58:25.590Z,9502.72
2024-05-09T06:59:25.817Z,10803.2
2024-05-09T07:00:30.237Z,9502.72
2024-05-09T07:01:26.087Z,9804.8
2024-05-09T07:02:26.237Z,12206.08
2024-05-09T07:03:26.476Z,12308.479
2024-05-09T07:04:26.750Z,11909.12
2024-05-09T07:05:26.800Z,10803.2
2024-05-09T07:06:26.810Z,9502.72
2024-05-09T07:07:26.961Z,10204.16
2024-05-09T07:08:27.135Z,9103.359
2024-05-09T07:09:27.256Z,8401.92
2024-05-09T07:10:29.332Z,8601.6
2024-05-09T07:11:27.613Z,8202.24
2024-05-09T07:12:27.762Z,8202.24
2024-05-09T07:13:27.900Z,12503.04
2024-05-09T07:14:28.057Z,8704
2024-05-09T07:15:28.168Z,11806.72
2024-05-09T07:16:28.323Z,7700.48
2024-05-09T07:17:28.568Z,8304.64
2024-05-09T07:18:28.752Z,8704
2024-05-09T07:19:28.854Z,12308.479
2024-05-09T07:20:33.703Z,8104.96
2024-05-09T07:21:29.086Z,13608.96
2024-05-09T07:22:29.226Z,13608.96
2024-05-09T07:23:29.436Z,13301.76
2024-05-09T07:24:29.543Z,13404.16
2024-05-09T07:25:29.999Z,13209.6
2024-05-09T07:26:29.868Z,12001.279
2024-05-09T07:27:29.994Z,12707.84
2024-05-09T07:28:30.138Z,13301.76
2024-05-09T07:29:30.334Z,12605.439
2024-05-09T07:30:32.987Z,14008.319
2024-05-09T07:31:30.609Z,13803.52
2024-05-09T07:32:30.842Z,12605.439
2024-05-09T07:33:30.999Z,13107.199
2024-05-09T07:34:31.172Z,11008
2024-05-09T07:35:31.544Z,10905.6
2024-05-09T07:36:31.413Z,9502.72
2024-05-09T07:37:31.516Z,13209.6
2024-05-09T07:38:31.683Z,9702.399
2024-05-09T07:39:31.824Z,12206.08
2024-05-09T07:40:34.992Z,9804.8
2024-05-09T07:41:32.236Z,14008.319
2024-05-09T07:42:32.272Z,11704.319
2024-05-09T07:43:32.417Z,11509.76
2024-05-09T07:44:32.652Z,12707.84
2024-05-09T07:45:43.226Z,13506.56
2024-05-09T07:51:31.723Z,13209.6
2024-05-09T07:53:38.031Z,13404.16
2024-05-09T07:54:34.116Z,13107.199
2024-05-09T07:55:34.315Z,10608.64
2024-05-09T07:56:34.533Z,10905.6
2024-05-09T07:57:34.461Z,12206.08
2024-05-09T07:58:34.500Z,8704
2024-05-09T07:59:37.721Z,10905.6
2024-05-09T08:00:34.878Z,11509.76
2024-05-09T08:01:35.136Z,12605.439
2024-05-09T08:02:35.260Z,13107.199
2024-05-09T08:03:35.461Z,13404.16
2024-05-09T08:04:35.507Z,13608.96
2024-05-09T08:05:35.678Z,10101.76
2024-05-09T08:06:35.701Z,13404.16
2024-05-09T08:07:35.818Z,12503.04
2024-05-09T08:08:35.964Z,9902.08
2024-05-09T08:09:37.982Z,14305.279
2024-05-09T08:10:36.334Z,14100.479
2024-05-09T08:11:36.444Z,16005.12
2024-05-09T08:12:36.638Z,15001.6
2024-05-09T08:13:36.746Z,9502.72
2024-05-09T08:14:37.384Z,11304.96
2024-05-09T08:16:37.238Z,12206.08
2024-05-09T08:17:37.506Z,11407.359
2024-05-09T08:18:37.783Z,14305.279
2024-05-09T08:19:37.700Z,15708.159
2024-05-09T08:20:37.778Z,16209.92
2024-05-09T08:21:38.426Z,11601.92
2024-05-09T08:23:38.257Z,16209.92
2024-05-09T08:24:38.423Z,10101.76
2024-05-09T08:25:38.549Z,13004.8
2024-05-09T08:26:38.696Z,14305.279
2024-05-09T08:28:39.001Z,13004.8
2024-05-09T08:29:39.226Z,14807.04
2024-05-09T08:30:39.412Z,14202.88
2024-05-09T08:31:39.516Z,14100.479
2024-05-09T08:32:39.668Z,14602.239
2024-05-09T08:33:39.773Z,14602.239
2024-05-09T08:34:39.884Z,14602.239
2024-05-09T08:35:40.000Z,14602.239
2024-05-09T08:36:40.696Z,14602.239
2024-05-09T08:39:41.651Z,15206.399
2024-05-09T08:41:41.771Z,15206.399
2024-05-09T08:43:42.974Z,15308.8
2024-05-09T08:45:42.565Z,15503.359
2024-05-09T08:47:43.183Z,15708.159
2024-05-09T08:49:42.109Z,14407.68
2024-05-09T08:50:42.318Z,15001.6
2024-05-09T08:51:42.472Z,15605.76
2024-05-09T08:52:42.556Z,16506.88
2024-05-09T08:53:42.717Z,16803.84
2024-05-09T08:54:42.920Z,17008.64
2024-05-09T08:55:43.752Z,17305.6
2024-05-09T08:56:43.202Z,17602.56
2024-05-09T08:57:43.399Z,18206.72
2024-05-09T08:58:43.546Z,18606.08
2024-05-09T08:59:43.697Z,18903.04
2024-05-09T09:00:44.034Z,19302.4
2024-05-09T09:01:44.090Z,19804.16
2024-05-09T09:02:44.392Z,20500.48
2024-05-09T09:03:44.461Z,21012.48
2024-05-09T09:04:44.455Z,21012.48
2024-05-09T09:05:44.607Z,21504
2024-05-09T09:06:44.812Z,19005.44
2024-05-09T09:07:44.858Z,22016
2024-05-09T09:08:45.035Z,23019.52
2024-05-09T09:09:45.201Z,23511.04
2024-05-09T09:10:45.465Z,16803.84
2024-05-09T09:11:45.470Z,24514.56
2024-05-09T09:12:45.678Z,24514.56
2024-05-09T09:13:45.759Z,24514.56
2024-05-09T09:14:45.921Z,24002.56
2024-05-09T09:15:46.104Z,24514.56
2024-05-09T09:16:46.218Z,24514.56
2024-05-09T09:17:46.451Z,25518.08
2024-05-09T09:18:46.733Z,25518.08
2024-05-09T09:19:46.732Z,25518.08
2024-05-09T09:20:46.912Z,25518.08
2024-05-09T09:21:47.038Z,26009.6
2024-05-09T09:22:47.132Z,26009.6
2024-05-09T09:23:47.254Z,26501.12
2024-05-09T09:24:47.418Z,26501.12
2024-05-09T09:25:47.547Z,26501.12
2024-05-09T09:26:47.683Z,26501.12
2024-05-09T09:27:47.862Z,26501.12
2024-05-09T09:28:47.984Z,26501.12
2024-05-09T09:29:48.138Z,26501.12
2024-05-09T09:30:48.345Z,12308.479
2024-05-09T09:31:48.446Z,14202.88
2024-05-09T09:32:48.677Z,12206.08
2024-05-09T09:33:48.965Z,12605.439
2024-05-09T09:34:48.969Z,12902.399
2024-05-09T09:35:49.051Z,12308.479
2024-05-09T09:36:49.169Z,13209.6
2024-05-09T09:37:49.312Z,13701.12
2024-05-09T09:38:49.463Z,22507.52
2024-05-09T09:39:49.646Z,18309.12
2024-05-09T09:40:50.066Z,27013.12
2024-05-09T09:41:49.868Z,27013.12
2024-05-09T09:42:50.082Z,26501.12
2024-05-09T09:43:50.172Z,27013.12
2024-05-09T09:44:57.766Z,26501.12
2024-05-09T09:45:50.521Z,26501.12
2024-05-09T09:46:50.684Z,26009.6
2024-05-09T09:47:50.815Z,26501.12
2024-05-09T09:48:51.068Z,26501.12
2024-05-09T09:49:51.102Z,26501.12
2024-05-09T09:50:51.300Z,26501.12
2024-05-09T09:51:51.456Z,26501.12
2024-05-09T09:52:51.550Z,26501.12
2024-05-09T09:53:51.706Z,26501.12
2024-05-09T09:54:51.882Z,27013.12
2024-05-09T09:55:52.012Z,27013.12
2024-05-09T09:56:52.149Z,27013.12
2024-05-09T09:57:52.323Z,27013.12
2024-05-09T09:58:52.452Z,27504.64
2024-05-09T09:59:52.606Z,25518.08
2024-05-09T10:00:52.807Z,28508.16
2024-05-09T10:01:53.103Z,29020.16
2024-05-09T10:02:53.067Z,29511.68
2024-05-09T10:03:53.365Z,30003.2
2024-05-09T10:04:53.507Z,30003.2
2024-05-09T10:05:53.535Z,30515.2
2024-05-09T10:06:53.713Z,30515.2
2024-05-09T10:07:53.764Z,26009.6
2024-05-09T10:08:53.933Z,16005.12
2024-05-09T10:09:54.126Z,29020.16
2024-05-09T10:10:54.368Z,23511.04
2024-05-09T10:11:59.480Z,30515.2
2024-05-09T10:12:54.557Z,30515.2
2024-05-09T10:13:54.662Z,25006.08
2024-05-09T10:14:54.827Z,29511.68
2024-05-09T10:15:55.020Z,27013.12
2024-05-09T10:16:55.119Z,13701.12
2024-05-09T10:17:55.355Z,13209.6
2024-05-09T10:18:55.549Z,18104.32
2024-05-09T10:19:55.647Z,30003.2
2024-05-09T10:20:55.740Z,30003.2
2024-05-09T10:21:55.885Z,11509.76
2024-05-09T10:22:56.047Z,18309.12
2024-05-09T10:23:56.204Z,11304.96
2024-05-09T10:24:56.396Z,10803.2
2024-05-09T10:25:56.499Z,10803.2
2024-05-09T10:26:56.651Z,11008
2024-05-09T10:27:56.839Z,11100.16
2024-05-09T10:28:56.967Z,11304.96
2024-05-09T10:29:57.125Z,11304.96
2024-05-09T10:30:57.249Z,11509.76
2024-05-09T10:31:57.350Z,12800
2024-05-09T10:32:57.682Z,13301.76
2024-05-09T10:33:57.849Z,31006.72
2024-05-09T10:34:57.864Z,29020.16
2024-05-09T10:35:57.963Z,32010.24
2024-05-09T10:36:58.107Z,16302.08
2024-05-09T10:37:58.250Z,19005.44
2024-05-09T10:38:58.422Z,33013.76
2024-05-09T10:39:58.583Z,26009.6
2024-05-09T10:40:58.737Z,31518.72
2024-05-09T10:41:58.881Z,23511.04
2024-05-09T10:43:00.063Z,29511.68
2024-05-09T10:43:59.176Z,29511.68
2024-05-09T10:44:59.335Z,30003.2
2024-05-09T10:45:59.484Z,30515.2
2024-05-09T10:46:59.650Z,30515.2
2024-05-09T10:47:59.927Z,31006.72
2024-05-09T10:49:02.403Z,31006.72
2024-05-09T10:50:00.158Z,31006.72
2024-05-09T10:51:00.179Z,31518.72
2024-05-09T10:52:00.383Z,31006.72
2024-05-09T10:53:00.518Z,31006.72
2024-05-09T10:54:00.694Z,31006.72
2024-05-09T10:55:01.633Z,31518.72
2024-05-09T10:56:00.986Z,31518.72
2024-05-09T10:57:01.148Z,32010.24
2024-05-09T10:58:01.328Z,16506.88
2024-05-09T10:59:01.438Z,14510.08
2024-05-09T11:00:01.632Z,30515.2
2024-05-09T11:01:04.471Z,31518.72
2024-05-09T11:02:01.945Z,15308.8
2024-05-09T11:03:02.072Z,7500.8
2024-05-09T11:04:02.381Z,7101.44
2024-05-09T11:05:02.451Z,31006.72
2024-05-09T11:06:02.515Z,32010.24
2024-05-09T11:07:05.235Z,31006.72
2024-05-09T11:08:02.818Z,31518.72
2024-05-09T11:09:02.966Z,31518.72
2024-05-09T11:10:03.433Z,32010.24
2024-05-09T11:11:03.308Z,32501.76
2024-05-09T11:12:03.404Z,33013.76
2024-05-09T11:13:03.573Z,33505.28
2024-05-09T11:14:03.670Z,34017.28
2024-05-09T11:15:03.831Z,34017.28
2024-05-09T11:16:04.044Z,34508.8
2024-05-09T11:17:04.170Z,35000.32
2024-05-09T11:18:04.351Z,36003.84
2024-05-09T11:19:04.595Z,36515.84
2024-05-09T11:20:08.023Z,37519.36
2024-05-09T11:21:04.729Z,37519.36
2024-05-09T11:22:04.883Z,38010.88
2024-05-09T11:23:05.037Z,40017.92
2024-05-09T11:24:07.276Z,40509.44
2024-05-09T11:25:05.387Z,40509.44
2024-05-09T11:26:05.495Z,40509.44
2024-05-09T11:27:05.642Z,40509.44
2024-05-09T11:28:05.805Z,42024.96
2024-05-09T11:29:05.929Z,42024.96
2024-05-09T11:30:09.145Z,43008
2024-05-09T11:31:06.222Z,43008
2024-05-09T11:32:06.390Z,41512.96
2024-05-09T11:33:06.466Z,40509.44
2024-05-09T11:34:06.616Z,39505.92
2024-05-09T11:35:06.752Z,40509.44
2024-05-09T11:36:06.920Z,41512.96
2024-05-09T11:37:07.078Z,43008
2024-05-09T11:38:07.209Z,43540.48
2024-05-09T11:39:07.357Z,44523.52
2024-05-09T11:40:11.701Z,46039.04
2024-05-09T11:41:07.675Z,47022.08
2024-05-09T11:42:07.811Z,48005.12
2024-05-09T11:43:07.958Z,49029.12
2024-05-09T11:44:08.078Z,51036.16
2024-05-09T11:45:08.225Z,44032
2024-05-09T11:46:08.415Z,34508.8
2024-05-09T11:47:08.567Z,52510.72
2024-05-09T11:48:08.722Z,21504
2024-05-09T11:49:08.861Z,25518.08
2024-05-09T11:50:12.898Z,17602.56
2024-05-09T11:51:09.110Z,13905.92
2024-05-09T11:52:09.336Z,12400.64
2024-05-09T11:53:09.398Z,12605.439
2024-05-09T11:54:09.526Z,51036.16
2024-05-09T11:55:09.753Z,53534.72
2024-05-09T11:56:09.802Z,42516.48
2024-05-09T11:57:09.934Z,29511.68
2024-05-09T11:58:10.194Z,34017.28
2024-05-09T11:59:10.256Z,50503.68
2024-05-09T12:00:14.835Z,52510.72
2024-05-09T12:01:10.614Z,52019.2
2024-05-09T12:02:10.867Z,52019.2
2024-05-09T12:03:10.828Z,53002.24
2024-05-09T12:04:11.148Z,53534.72
2024-05-09T12:05:11.215Z,54517.76
2024-05-09T12:06:11.286Z,55009.28
2024-05-09T12:07:12.931Z,55009.28
2024-05-09T12:08:11.549Z,55500.8
2024-05-09T12:09:11.718Z,56033.28
2024-05-09T12:10:14.094Z,56524.8
2024-05-09T12:11:12.090Z,59023.36
2024-05-09T12:12:12.173Z,62013.44
2024-05-09T12:13:12.345Z,14510.08
2024-05-09T12:14:12.473Z,48537.6
2024-05-09T12:15:12.677Z,11806.72
2024-05-09T12:16:12.894Z,11100.16
2024-05-09T12:17:12.988Z,12503.04
2024-05-09T12:18:13.105Z,13107.199
2024-05-09T12:19:13.285Z,11407.359
2024-05-09T12:20:17.457Z,11202.56
2024-05-09T12:21:13.538Z,16609.28
2024-05-09T12:22:13.728Z,64512
2024-05-09T12:23:13.845Z,65003.52
2024-05-09T12:24:16.939Z,64512
2024-05-09T12:25:14.251Z,65536
2024-05-09T12:26:14.287Z,64020.48
2024-05-09T12:27:14.458Z,64020.48
2024-05-09T12:28:14.627Z,64512
2024-05-09T12:29:14.757Z,64020.48
2024-05-09T12:30:17.283Z,64512
2024-05-09T12:31:15.081Z,65536
2024-05-09T12:32:15.262Z,66027.52
2024-05-09T12:33:15.452Z,66519.04
2024-05-09T12:34:15.615Z,67010.56
2024-05-09T12:35:15.740Z,68034.56
2024-05-09T12:36:15.803Z,67502.08
2024-05-09T12:37:16.035Z,62504.96
2024-05-09T12:38:16.110Z,12103.68
2024-05-09T12:39:16.252Z,12206.08
2024-05-09T12:40:22.426Z,69509.12
2024-05-09T12:41:16.630Z,44032
2024-05-09T12:42:25.839Z,17008.64
2024-05-09T12:43:16.916Z,12902.399
2024-05-09T12:44:17.040Z,16107.52
2024-05-09T12:45:17.178Z,72007.68
2024-05-09T12:46:17.351Z,73031.68
2024-05-09T12:47:17.523Z,73523.2
2024-05-09T12:48:17.759Z,75038.72
2024-05-09T12:49:19.129Z,75530.24
2024-05-09T12:50:22.209Z,76021.76
2024-05-09T12:51:18.083Z,76513.28
2024-05-09T12:52:18.251Z,77004.8
2024-05-09T12:53:18.388Z,77537.28
2024-05-09T12:54:18.541Z,77537.28
2024-05-09T12:55:18.693Z,78028.8
2024-05-09T12:56:18.841Z,79011.84
2024-05-09T12:57:19.003Z,79503.36
2024-05-09T12:58:19.498Z,80035.84
2024-05-09T12:59:19.343Z,80527.36
2024-05-09T13:00:23.154Z,81510.4
2024-05-09T13:01:19.620Z,82001.92